createdAt,value
2019-02-23T00:02:26.331Z,4.40
2019-02-23T00:07:31.147Z,4.17
2019-02-23T00:12:35.913Z,4.47
2019-02-23T00:17:40.585Z,4.20
2019-02-23T00:22:45.634Z,4.17
2019-02-23T00:27:50.301Z,4.67
2019-02-23T00:32:54.993Z,4.17
2019-02-23T00:37:59.946Z,4.50
2019-02-23T00:43:05.696Z,4.70
2019-02-23T00:48:10.392Z,3.92
2019-02-23T00:53:15.073Z,4.50
2019-02-23T00:58:19.774Z,4.08
2019-02-23T01:03:24.462Z,4.63
2019-02-23T01:08:29.118Z,4.00
2019-02-23T01:13:33.834Z,4.80
2019-02-23T01:18:38.489Z,4.90
2019-02-23T01:23:43.232Z,4.33
2019-02-23T01:28:47.936Z,4.47
2019-02-23T01:33:52.679Z,4.60
2019-02-23T01:38:57.414Z,4.73
2019-02-23T01:44:02.114Z,4.53
2019-02-23T01:49:06.858Z,4.93
2019-02-23T01:54:11.630Z,5.23
2019-02-23T01:59:16.312Z,5.13
2019-02-23T02:04:21.148Z,4.47
2019-02-23T02:09:25.831Z,5.27
2019-02-23T02:14:30.530Z,5.13
2019-02-23T02:19:35.509Z,4.97
2019-02-23T02:24:40.181Z,5.57
2019-02-23T02:29:44.940Z,5.40
2019-02-23T02:34:49.673Z,5.53
2019-02-23T02:39:54.397Z,5.80
2019-02-23T02:44:59.077Z,5.23
2019-02-23T02:50:04.560Z,5.85
2019-02-23T02:55:09.677Z,5.70
2019-02-23T03:00:14.533Z,5.80
2019-02-23T03:05:19.358Z,6.30
2019-02-23T03:10:24.165Z,6.25
2019-02-23T03:15:28.881Z,6.23
2019-02-23T03:20:36.934Z,6.17
2019-02-23T03:25:39.991Z,6.73
2019-02-23T03:30:44.662Z,6.63
2019-02-23T03:35:49.369Z,6.17
2019-02-23T03:40:54.040Z,6.97
2019-02-23T03:45:58.746Z,6.27
2019-02-23T03:51:04.343Z,6.07
2019-02-23T03:56:09.024Z,6.20
2019-02-23T04:01:13.778Z,6.43
2019-02-23T04:06:18.517Z,6.65
2019-02-23T04:11:23.234Z,6.97
2019-02-23T04:16:28.244Z,7.57
2019-02-23T04:21:33.256Z,6.97
2019-02-23T04:26:37.924Z,6.47
2019-02-23T04:31:42.615Z,7.03
2019-02-23T04:36:47.306Z,7.40
2019-02-23T04:41:52.002Z,7.43
2019-02-23T04:46:56.665Z,7.20
2019-02-23T04:52:01.362Z,8.07
2019-02-23T04:57:06.144Z,7.47
2019-02-23T05:02:10.900Z,7.47
2019-02-23T05:07:15.585Z,7.00
2019-02-23T05:12:20.246Z,8.10
2019-02-23T05:17:24.911Z,7.40
2019-02-23T05:22:29.590Z,7.72
2019-02-23T05:27:34.253Z,7.50
2019-02-23T05:32:39.153Z,7.30
2019-02-23T05:37:43.849Z,7.40
2019-02-23T05:43:00.158Z,7.53
2019-02-23T05:47:55.723Z,7.60
2019-02-23T05:53:00.534Z,7.40
2019-02-23T05:58:05.285Z,7.73
2019-02-23T06:03:10.460Z,7.37
2019-02-23T06:08:15.230Z,7.60
2019-02-23T06:13:19.973Z,8.70
2019-02-23T06:18:25.712Z,7.77
2019-02-23T06:23:30.465Z,8.27
2019-02-23T06:28:35.121Z,7.70
2019-02-23T06:33:39.825Z,7.30
2019-02-23T06:38:44.512Z,8.03
2019-02-23T06:43:49.197Z,8.50
2019-02-23T06:48:53.973Z,7.63
2019-02-23T06:53:58.988Z,8.33
2019-02-23T06:59:04.517Z,8.70
2019-02-23T07:04:09.316Z,8.45
2019-02-23T07:09:14.018Z,8.30
2019-02-23T07:14:18.740Z,7.80
2019-02-23T07:19:23.462Z,9.03
2019-02-23T07:24:28.472Z,9.30
2019-02-23T07:29:33.174Z,8.27
2019-02-23T07:34:38.260Z,8.73
2019-02-23T07:39:43.032Z,8.60
2019-02-23T07:44:47.720Z,8.03
2019-02-23T07:49:52.490Z,8.27
2019-02-23T07:54:57.182Z,8.63
2019-02-23T08:00:02.942Z,8.53
2019-02-23T08:05:08.682Z,8.87
2019-02-23T08:10:13.513Z,8.27
2019-02-23T08:15:18.216Z,8.60
2019-02-23T08:20:23.222Z,8.05
2019-02-23T08:25:28.011Z,7.90
2019-02-23T08:30:33.452Z,7.67
2019-02-23T08:35:38.155Z,7.97
2019-02-23T08:40:42.973Z,8.03
2019-02-23T08:45:47.691Z,7.17
2019-02-23T08:50:52.453Z,7.70
2019-02-23T08:55:57.167Z,7.60
2019-02-23T09:01:02.269Z,7.13
2019-02-23T09:06:07.933Z,7.60
2019-02-23T09:11:12.665Z,7.43
2019-02-23T09:16:17.731Z,7.07
2019-02-23T09:21:22.853Z,7.37
2019-02-23T09:26:27.587Z,6.53
2019-02-23T09:31:32.442Z,6.53
2019-02-23T09:36:37.187Z,6.17
2019-02-23T09:41:41.909Z,6.43
2019-02-23T09:46:46.625Z,6.07
2019-02-23T09:51:51.322Z,7.37
2019-02-23T09:56:56.067Z,6.43
2019-02-23T10:02:04.263Z,7.47
2019-02-23T10:07:09.730Z,6.37
2019-02-23T10:12:14.442Z,5.90
2019-02-23T10:17:19.132Z,6.77
2019-02-23T10:22:23.804Z,7.30
2019-02-23T10:27:28.746Z,6.53
2019-02-23T10:32:33.475Z,6.20
2019-02-23T10:37:38.268Z,5.87
2019-02-23T10:42:43.259Z,6.07
2019-02-23T10:47:50.181Z,5.67
2019-02-23T10:52:54.430Z,5.20
2019-02-23T10:57:59.186Z,6.30
2019-02-23T11:03:04.628Z,6.47
2019-02-23T11:08:09.477Z,5.87
2019-02-23T11:13:14.160Z,5.78
2019-02-23T11:18:18.996Z,6.40
2019-02-23T11:23:23.679Z,5.50
2019-02-23T11:28:28.445Z,5.33
2019-02-23T11:33:33.115Z,6.47
2019-02-23T11:38:37.893Z,5.63
2019-02-23T11:43:42.642Z,5.40
2019-02-23T11:48:47.333Z,4.70
2019-02-23T11:53:55.046Z,5.17
2019-02-23T11:58:58.527Z,5.67
2019-02-23T12:04:03.210Z,5.23
2019-02-23T12:09:08.631Z,5.43
2019-02-23T12:14:13.307Z,5.40
2019-02-23T12:19:18.016Z,5.03
2019-02-23T12:24:23.076Z,5.87
2019-02-23T12:29:28.720Z,5.40
2019-02-23T12:34:33.400Z,5.33
2019-02-23T12:39:38.083Z,5.57
2019-02-23T12:44:42.743Z,5.57
2019-02-23T12:49:47.413Z,5.60
2019-02-23T12:54:52.384Z,5.33
2019-02-23T12:59:57.396Z,5.90
2019-02-23T13:05:02.101Z,5.80
2019-02-23T13:10:07.934Z,5.53
2019-02-23T13:15:22.243Z,5.43
2019-02-23T13:20:58.518Z,5.67
2019-02-23T13:26:32.121Z,6.10
2019-02-23T13:32:18.134Z,6.10
2019-02-23T13:38:25.154Z,5.93
2019-02-23T13:44:12.591Z,6.10
2019-02-23T13:49:53.605Z,5.87
2019-02-23T13:55:34.105Z,6.10
2019-02-23T14:01:34.358Z,6.50
2019-02-23T14:06:50.282Z,5.90
2019-02-23T14:12:05.536Z,6.00
2019-02-23T14:17:47.834Z,6.00
2019-02-23T14:23:45.339Z,6.73
2019-02-23T14:29:30.558Z,5.97
2019-02-23T14:35:26.622Z,5.90
2019-02-23T14:41:18.990Z,5.73
2019-02-23T14:47:02.853Z,5.40
2019-02-23T14:52:43.923Z,5.97
2019-02-23T14:58:44.036Z,6.30
2019-02-23T15:04:36.059Z,6.30
2019-02-23T15:09:57.700Z,5.60
2019-02-23T15:15:43.130Z,6.20
2019-02-23T15:21:28.255Z,5.90
2019-02-23T15:27:13.021Z,6.23
2019-02-23T15:32:53.874Z,4.97
2019-02-23T15:38:34.296Z,6.13
2019-02-23T15:43:53.096Z,5.70
2019-02-23T15:49:37.774Z,5.60
2019-02-23T15:54:42.545Z,5.27
2019-02-23T15:59:47.238Z,5.43
2019-02-23T16:04:52.937Z,4.80
2019-02-23T16:09:57.839Z,5.27
2019-02-23T16:15:02.560Z,4.97
2019-02-23T16:20:07.670Z,5.67
2019-02-23T16:25:12.363Z,6.10
2019-02-23T16:30:17.048Z,5.20
2019-02-23T16:35:22.631Z,5.50
2019-02-23T16:40:27.514Z,5.20
2019-02-23T16:45:32.190Z,6.30
2019-02-23T16:50:36.906Z,6.47
2019-02-23T16:55:50.546Z,6.30
2019-02-23T17:00:48.000Z,5.40
2019-02-23T17:05:52.682Z,6.23
2019-02-23T17:10:57.364Z,6.10
2019-02-23T17:16:02.092Z,5.87
2019-02-23T17:21:07.080Z,5.90
2019-02-23T17:26:11.757Z,6.33
2019-02-23T17:31:16.422Z,6.07
2019-02-23T17:36:21.465Z,6.20
2019-02-23T17:41:26.212Z,6.97
2019-02-23T17:46:30.892Z,6.90
2019-02-23T17:51:35.581Z,7.90
2019-02-23T17:56:40.251Z,7.47
2019-02-23T18:01:45.987Z,8.00
2019-02-23T18:06:51.646Z,7.57
2019-02-23T18:11:56.727Z,8.13
2019-02-23T18:17:01.475Z,8.17
2019-02-23T18:22:06.236Z,8.07
2019-02-23T18:27:10.952Z,8.97
2019-02-23T18:32:15.665Z,9.97
2019-02-23T18:37:20.376Z,9.30
2019-02-23T18:42:25.078Z,9.53
2019-02-23T18:47:30.814Z,9.10
2019-02-23T18:52:35.500Z,10.00
2019-02-23T18:57:40.325Z,12.03
2019-02-23T19:02:45.043Z,11.23
2019-02-23T19:07:49.777Z,11.50
2019-02-23T19:12:54.476Z,14.40
2019-02-23T19:17:59.165Z,16.30
2019-02-23T19:23:04.755Z,14.03
2019-02-23T19:28:09.486Z,12.87
2019-02-23T19:33:15.442Z,11.88
2019-02-23T19:38:20.522Z,11.80
2019-02-23T19:43:25.202Z,11.37
2019-02-23T19:48:29.910Z,10.60
2019-02-23T19:53:34.587Z,10.50
2019-02-23T19:58:39.282Z,11.60
2019-02-23T20:03:43.937Z,10.83
2019-02-23T20:08:48.744Z,10.40
2019-02-23T20:13:53.470Z,10.80
2019-02-23T20:18:58.192Z,11.30
2019-02-23T20:24:02.988Z,10.70
2019-02-23T20:29:07.706Z,11.40
2019-02-23T20:34:12.398Z,11.67
2019-02-23T20:39:17.231Z,11.37
2019-02-23T20:44:22.024Z,11.17
2019-02-23T20:49:26.729Z,11.60
2019-02-23T20:54:31.485Z,11.20
2019-02-23T20:59:36.256Z,10.93
2019-02-23T21:04:40.948Z,10.73
2019-02-23T21:09:45.685Z,11.73
2019-02-23T21:14:50.487Z,11.40
2019-02-23T21:19:55.167Z,11.43
2019-02-23T21:24:59.851Z,11.63
2019-02-23T21:30:05.136Z,11.17
2019-02-23T21:35:09.947Z,14.13
2019-02-23T21:40:14.668Z,17.53
2019-02-23T21:45:19.351Z,18.05
2019-02-23T21:50:24.076Z,20.43
2019-02-23T21:55:28.788Z,17.97
2019-02-23T22:00:33.687Z,16.73
2019-02-23T22:05:38.466Z,13.50
2019-02-23T22:10:44.191Z,13.43
2019-02-23T22:15:48.958Z,13.88
2019-02-23T22:20:54.005Z,13.50
2019-02-23T22:25:59.029Z,12.40
2019-02-23T22:31:04.814Z,12.53
2019-02-23T22:36:09.659Z,12.57
2019-02-23T22:41:14.438Z,12.50
2019-02-23T22:46:19.246Z,13.13
2019-02-23T22:51:23.930Z,13.13
2019-02-23T22:56:28.630Z,13.30
2019-02-23T23:01:33.317Z,12.90
2019-02-23T23:06:38.128Z,13.93
2019-02-23T23:11:42.826Z,13.63
2019-02-23T23:16:47.580Z,13.83
2019-02-23T23:21:52.427Z,14.03
2019-02-23T23:26:57.139Z,14.17
2019-02-23T23:32:01.800Z,13.37
2019-02-23T23:37:06.522Z,13.87
2019-02-23T23:42:11.268Z,13.50
2019-02-23T23:47:15.968Z,12.93
2019-02-23T23:52:20.726Z,13.10
2019-02-23T23:57:25.456Z,13.77
